Time;durP1;ratioP1;P1;durP2;ratioP2;P2;SDS_P1;SDS_P2;PMS_P1;PMS_P2;Temp;Humidity;BMP_temperature;BMP_pressure;BME280_temperature;BME280_humidity;BME280_pressure;Samples;Min_cycle;Max_cycle;Signal;HPM_P1;HPM_P2
2022/11/21 00:01:40;;;;;;;42.92;21.38;;;;;;;-143.48;89.25;79231.94;5053324;28;20472;-33
2022/11/21 00:04:06;;;;;;;44.50;22.88;;;;;;;-143.48;89.52;79301.34;5053434;28;20024;-34
2022/11/21 00:06:31;;;;;;;41.78;21.02;;;;;;;-143.48;90.50;79265.66;5051274;28;20025;-33
2022/11/21 00:08:56;;;;;;;45.45;22.98;;;;;;;-143.48;90.12;79277.53;5051296;28;20043;-33
2022/11/21 00:11:22;;;;;;;42.65;22.17;;;;;;;-143.48;89.75;79283.50;5051320;28;20476;-33
2022/11/21 00:13:47;;;;;;;37.08;20.67;;;;;;;-143.48;89.97;79273.59;5051197;28;20479;-33
2022/11/21 00:16:14;;;;;;;40.67;21.30;;;;;;;-143.48;89.05;79279.53;5051037;28;20029;-33
2022/11/21 00:18:41;;;;;;;39.78;20.60;;;;;;;-143.48;88.89;79281.50;5050080;28;20065;-33
2022/11/21 00:21:09;;;;;;;38.22;20.67;;;;;;;-143.48;88.98;79285.47;5051099;28;20039;-33
2022/11/21 00:23:34;;;;;;;37.72;20.23;;;;;;;-143.48;89.56;79279.53;5034367;28;20029;-32
2022/11/21 00:26:05;;;;;;;37.03;19.55;;;;;;;-143.48;88.91;79267.63;5053427;28;20361;-32
2022/11/21 00:28:30;;;;;;;35.28;19.25;;;;;;;-143.48;89.09;79287.47;5053424;28;20484;-31
2022/11/21 00:30:55;;;;;;;37.45;20.02;;;;;;;-143.48;89.68;79287.47;5053019;28;20112;-31
2022/11/21 00:33:20;;;;;;;34.90;19.65;;;;;;;-143.48;89.44;79269.63;5053573;28;20021;-31
2022/11/21 00:35:46;;;;;;;35.03;18.88;;;;;;;-143.48;88.66;79277.53;5053557;28;20021;-31
2022/11/21 00:38:11;;;;;;;34.47;18.35;;;;;;;-143.48;88.02;79253.75;5052957;28;20013;-33
2022/11/21 00:40:36;;;;;;;37.22;18.13;;;;;;;-143.48;87.01;79285.47;5053045;28;20060;-33
2022/11/21 00:43:01;;;;;;;33.28;19.08;;;;;;;-143.48;86.98;79281.50;5053313;28;20029;-33
2022/11/21 00:45:27;;;;;;;35.83;19.63;;;;;;;-143.48;88.05;79295.41;5053084;28;20357;-33
2022/11/21 00:47:53;;;;;;;36.28;19.13;;;;;;;-143.48;88.25;79287.47;5053235;28;20111;-34
2022/11/21 00:50:18;;;;;;;36.22;19.52;;;;;;;-143.48;87.67;79319.22;5052978;28;20028;-33
2022/11/21 00:52:43;;;;;;;36.47;19.17;;;;;;;-143.48;88.61;79305.31;5053159;28;20017;-32
2022/11/21 00:55:09;;;;;;;38.10;19.92;;;;;;;-143.48;88.56;79295.41;5053521;28;20472;-34
2022/11/21 00:57:34;;;;;;;37.67;19.77;;;;;;;-143.48;88.51;79303.34;5052852;28;20033;-34
2022/11/21 00:59:59;;;;;;;37.45;20.35;;;;;;;-143.48;88.84;79291.44;5053128;28;20025;-34
2022/11/21 01:02:24;;;;;;;36.85;19.50;;;;;;;-143.48;88.32;79279.53;5052856;28;20036;-33
2022/11/21 01:04:50;;;;;;;35.85;20.02;;;;;;;-143.48;88.41;79269.63;5053386;28;20129;-33
2022/11/21 01:07:15;;;;;;;37.90;19.92;;;;;;;-143.48;88.40;79269.63;5052738;28;20443;-33
2022/11/21 01:09:40;;;;;;;36.13;19.67;;;;;;;-143.48;89.23;79273.59;5053188;28;20025;-33
2022/11/21 01:12:05;;;;;;;43.63;22.27;;;;;;;-143.48;89.55;79263.66;5052583;28;20507;-33
2022/11/21 01:14:31;;;;;;;41.53;20.90;;;;;;;-143.48;89.10;79301.34;5052650;28;20372;-33
2022/11/21 01:16:56;;;;;;;38.72;20.65;;;;;;;-143.48;89.68;79277.53;5052919;28;20029;-33
2022/11/21 01:19:21;;;;;;;42.42;20.92;;;;;;;-143.48;88.84;79301.34;5052220;28;20443;-33
2022/11/21 01:21:47;;;;;;;40.78;20.33;;;;;;;-143.48;89.38;79267.63;5050901;28;20027;-33
2022/11/21 01:24:12;;;;;;;42.28;21.35;;;;;;;-143.48;89.10;79289.44;5050689;28;20479;-33
2022/11/21 01:26:38;;;;;;;39.45;20.27;;;;;;;-143.48;89.25;79279.53;5050741;28;20440;-34
2022/11/21 01:29:04;;;;;;;38.20;20.15;;;;;;;-143.48;88.92;79261.69;5050878;28;20017;-33
2022/11/21 01:31:30;;;;;;;43.85;19.60;;;;;;;-143.48;87.95;79255.72;5054086;28;20104;-33
2022/11/21 01:33:57;;;;;;;40.67;20.63;;;;;;;-143.48;87.99;79265.66;5054568;28;20519;-33
2022/11/21 01:36:28;;;;;;;39.67;20.00;;;;;;;-143.48;89.36;79275.56;5056035;28;20128;-33
2022/11/21 01:38:56;;;;;;;39.38;19.27;;;;;;;-143.48;89.10;79273.59;5056541;28;20025;-32
2022/11/21 01:41:25;;;;;;;40.85;19.45;;;;;;;-143.48;88.04;79279.53;5056004;28;20029;-31
2022/11/21 01:43:51;;;;;;;41.88;19.88;;;;;;;-143.48;88.43;79273.59;5056244;28;20024;-31
2022/11/21 01:46:18;;;;;;;37.08;19.10;;;;;;;-143.48;87.97;79265.66;5055947;28;20021;-31
2022/11/21 01:49:09;;;;;;;38.53;19.67;;;;;;;-143.48;88.38;79275.56;5055785;28;20021;-31
2022/11/21 01:51:37;;;;;;;35.35;18.48;;;;;;;-143.48;88.64;79277.53;5054958;28;20066;-35
2022/11/21 01:54:30;;;;;;;38.15;19.75;;;;;;;-143.48;87.83;79285.47;5056097;28;20043;-33
2022/11/21 01:57:05;;;;;;;40.28;19.50;;;;;;;-143.48;87.99;79277.53;5053682;28;20017;-34
2022/11/21 01:59:46;;;;;;;36.53;19.48;;;;;;;-143.48;87.80;79319.22;5053731;28;20057;-33
2022/11/21 02:02:15;;;;;;;40.72;19.35;;;;;;;-143.48;88.83;79311.28;5053613;28;20100;-34
2022/11/21 02:04:42;;;;;;;36.42;19.30;;;;;;;-143.48;88.64;79317.22;5053999;28;20461;-34
2022/11/21 02:07:08;;;;;;;36.53;19.40;;;;;;;-143.48;88.87;79313.25;5053787;28;20025;-33
2022/11/21 02:09:36;;;;;;;39.30;19.50;;;;;;;-143.48;87.91;79291.44;5053790;28;20032;-34
2022/11/21 02:12:07;;;;;;;37.70;19.77;;;;;;;-143.48;88.08;79303.34;5055220;28;20025;-33
2022/11/21 02:14:34;;;;;;;41.60;19.75;;;;;;;-143.48;87.61;79295.41;5055412;28;20082;-33
2022/11/21 02:17:04;;;;;;;42.50;20.48;;;;;;;-143.48;87.02;79275.56;5055343;28;20021;-33
2022/11/21 02:19:37;;;;;;;41.28;19.92;;;;;;;-143.48;87.14;79291.44;5055396;28;20064;-37
2022/11/21 02:22:20;;;;;;;;;;;;;;;-143.48;87.82;79297.38;5056052;28;20041;-33
2022/11/21 02:24:57;;;;;;;41.30;19.92;;;;;;;-143.48;86.87;79295.41;5055482;28;19948;-33
2022/11/21 02:27:22;;;;;;;43.28;20.75;;;;;;;-143.48;86.83;79277.53;5055501;28;20073;-33
2022/11/21 02:29:47;;;;;;;39.42;20.42;;;;;;;-143.48;86.77;79269.63;5055196;28;20112;-33
2022/11/21 02:32:23;;;;;;;40.53;19.63;;;;;;;-143.48;87.58;79283.50;5055383;28;20071;-33
2022/11/21 02:34:49;;;;;;;43.88;20.13;;;;;;;-143.48;87.69;79295.41;5055228;28;20025;-33
2022/11/21 02:37:15;;;;;;;38.60;19.48;;;;;;;-143.48;87.56;79279.53;5054954;28;20495;-31
2022/11/21 02:39:41;;;;;;;46.10;21.40;;;;;;;-143.48;87.70;79295.41;5055398;28;20163;-34
2022/11/21 02:42:24;;;;;;;40.92;20.38;;;;;;;-143.48;88.03;79303.34;5054317;28;20091;-31
2022/11/21 02:45:00;;;;;;;39.55;20.20;;;;;;;-143.48;88.64;79279.53;5055123;28;20415;-31
2022/11/21 02:47:27;;;;;;;42.78;21.33;;;;;;;-143.48;87.71;79269.63;5055084;28;20025;-32
2022/11/21 02:50:02;;;;;;;40.80;20.13;;;;;;;-143.48;88.02;79285.47;5054675;28;20032;-31
2022/11/21 02:52:27;;;;;;;39.40;20.20;;;;;;;-143.48;87.64;79265.66;5054673;28;20029;-31
2022/11/21 02:54:52;;;;;;;38.35;20.08;;;;;;;-143.48;88.17;79267.63;5054986;28;20363;-32
2022/11/21 02:57:18;;;;;;;38.63;19.52;;;;;;;-143.48;87.66;79285.47;5054510;28;20031;-31
2022/11/21 02:59:43;;;;;;;41.75;20.48;;;;;;;-143.48;87.96;79279.53;5054513;28;20036;-31
2022/11/21 03:02:08;;;;;;;39.05;20.27;;;;;;;-143.48;88.83;79287.47;5054847;28;20028;-31
2022/11/21 03:04:34;;;;;;;45.35;20.38;;;;;;;-143.48;88.54;79293.41;5054456;28;20032;-31
2022/11/21 03:06:59;;;;;;;77.43;20.95;;;;;;;-143.48;89.39;79323.16;5036538;28;20020;-33
2022/11/21 03:09:24;;;;;;;76.88;21.15;;;;;;;-143.48;89.81;79339.03;5036446;28;20547;-32
2022/11/21 03:11:49;;;;;;;59.78;21.63;;;;;;;-143.48;90.92;79299.38;5054334;28;20024;-31
2022/11/21 03:14:15;;;;;;;74.65;20.70;;;;;;;-143.48;90.48;79319.22;5054126;28;20438;-31
2022/11/21 03:16:40;;;;;;;78.45;22.27;;;;;;;-143.48;90.80;79319.22;5054259;28;20191;-32
2022/11/21 03:19:05;;;;;;;67.53;21.67;;;;;;;-143.48;91.46;79329.13;5054378;28;20529;-31
2022/11/21 03:21:31;;;;;;;56.33;20.73;;;;;;;-143.48;91.96;79295.41;5036173;28;20036;-31
2022/11/21 03:23:56;;;;;;;57.97;20.42;;;;;;;-143.48;91.25;79279.53;5054118;28;20017;-31
2022/11/21 03:26:21;;;;;;;111.38;21.67;;;;;;;-143.48;90.95;79297.38;5054303;28;20115;-31
2022/11/21 03:28:46;;;;;;;97.40;21.40;;;;;;;-143.48;91.57;79267.63;5053912;28;20025;-31
2022/11/21 03:31:12;;;;;;;89.70;20.75;;;;;;;-143.48;90.89;79275.56;5053867;28;20032;-32
2022/11/21 03:33:37;;;;;;;77.25;20.40;;;;;;;-143.48;91.63;79305.31;5054481;28;20033;-31
2022/11/21 03:36:03;;;;;;;106.13;21.67;;;;;;;-143.48;91.35;79315.25;5054207;28;20124;-35
2022/11/21 03:38:28;;;;;;;144.77;22.42;;;;;;;-143.48;91.83;79319.22;5053806;28;20499;-33
2022/11/21 03:40:53;;;;;;;126.72;21.40;;;;;;;-143.48;92.81;79321.19;5053969;28;20040;-33
2022/11/21 03:43:18;;;;;;;66.65;20.67;;;;;;;-143.48;92.45;79309.28;5053808;28;20108;-33
2022/11/21 03:45:47;;;;;;;94.90;20.00;;;;;;;-143.48;92.56;79319.22;5054022;28;20047;-33
2022/11/21 03:48:15;;;;;;;99.72;20.15;;;;;;;-143.48;92.44;79309.28;5053702;28;20024;-34
2022/11/21 03:50:42;;;;;;;79.80;19.75;;;;;;;-143.48;92.32;79293.41;5053871;28;20024;-33
2022/11/21 03:53:08;;;;;;;74.03;20.70;;;;;;;-143.48;92.32;79303.34;5054074;28;20131;-33
2022/11/21 03:55:33;;;;;;;75.10;18.80;;;;;;;-143.48;92.03;79295.41;5053854;28;20570;-33
2022/11/21 03:57:58;;;;;;;59.10;19.10;;;;;;;-143.48;92.16;79291.44;5053529;28;20029;-33
2022/11/21 04:00:23;;;;;;;55.38;18.10;;;;;;;-143.48;92.09;79287.47;5053803;28;20028;-33
2022/11/21 04:02:49;;;;;;;54.00;19.33;;;;;;;-143.48;92.06;79281.50;5053381;28;20029;-33
2022/11/21 04:05:14;;;;;;;66.63;21.27;;;;;;;-143.48;92.16;79291.44;5053186;28;20109;-33
2022/11/21 04:07:39;;;;;;;71.45;19.63;;;;;;;-143.48;92.00;79295.41;5053884;28;20036;-33
2022/11/21 04:10:05;;;;;;;88.00;20.30;;;;;;;-143.48;92.07;79307.31;5035518;28;20021;-33
2022/11/21 04:12:30;;;;;;;102.45;20.40;;;;;;;-143.48;92.79;79301.34;5053839;28;20483;-33
2022/11/21 04:14:56;;;;;;;86.28;21.08;;;;;;;-143.48;92.83;79303.34;5053449;28;20024;-33
2022/11/21 04:17:21;;;;;;;73.85;20.23;;;;;;;-143.48;92.91;79303.34;5053330;28;20052;-34
2022/11/21 04:19:46;;;;;;;86.82;21.80;;;;;;;-143.48;93.50;79297.38;5053114;28;20049;-33
2022/11/21 04:22:11;;;;;;;109.65;22.23;;;;;;;-143.48;93.50;79299.38;5053520;28;20047;-33
2022/11/21 04:24:37;;;;;;;84.63;21.85;;;;;;;-143.48;93.37;79285.47;5053072;28;20032;-33
2022/11/21 04:27:02;;;;;;;115.30;20.90;;;;;;;-143.48;92.99;79293.41;5035384;28;20505;-33
2022/11/21 04:29:27;;;;;;;78.95;21.48;;;;;;;-143.48;93.30;79295.41;5053161;28;20025;-33
2022/11/21 04:31:53;;;;;;;59.00;21.15;;;;;;;-143.48;92.84;79311.28;5053409;28;20024;-33
2022/11/21 04:34:18;;;;;;;126.47;19.77;;;;;;;-143.48;92.97;79301.34;5053360;28;20017;-34
2022/11/21 04:36:43;;;;;;;69.22;19.70;;;;;;;-143.48;93.04;79297.38;5053057;28;20466;-33
2022/11/21 04:39:08;;;;;;;65.07;19.25;;;;;;;-143.48;92.91;79299.38;5052969;28;20056;-34
2022/11/21 04:41:35;;;;;;;55.88;19.27;;;;;;;-143.48;92.94;79273.59;5053333;28;20028;-33
2022/11/21 04:44:00;;;;;;;57.55;18.88;;;;;;;-143.48;92.27;79275.56;5053889;28;20029;-33
2022/11/21 04:46:25;;;;;;;75.45;19.10;;;;;;;-143.48;92.28;79319.22;5053172;28;20059;-33
2022/11/21 04:48:50;;;;;;;87.18;19.67;;;;;;;-143.48;93.25;79305.31;5053271;28;20107;-33
2022/11/21 04:51:16;;;;;;;75.28;19.15;;;;;;;-143.48;93.25;79303.34;5052941;28;20490;-35
2022/11/21 04:53:41;;;;;;;64.47;19.80;;;;;;;-143.48;93.19;79293.41;5053230;28;20036;-33
2022/11/21 04:56:06;;;;;;;71.68;18.73;;;;;;;-143.48;92.99;79265.66;5053147;28;20112;-34
2022/11/21 04:58:32;;;;;;;51.08;18.40;;;;;;;-143.48;92.75;79263.66;5052759;28;20337;-33
2022/11/21 05:00:57;;;;;;;81.22;17.95;;;;;;;-143.48;92.26;79249.78;5052808;28;20021;-33
2022/11/21 05:03:22;;;;;;;50.97;18.25;;;;;;;-143.48;92.12;79265.66;5053347;28;20029;-34
2022/11/21 05:05:47;;;;;;;70.00;17.80;;;;;;;-143.48;92.55;79297.38;5037138;28;20135;-34
2022/11/21 05:08:13;;;;;;;53.72;19.05;;;;;;;-143.48;93.33;79283.50;5056767;28;20070;-34
2022/11/21 05:13:23;;;;;;;68.93;17.30;;;;;;;-143.48;93.63;79285.47;5056927;28;20424;-34
2022/11/21 05:15:51;;;;;;;48.83;17.05;;;;;;;-143.48;93.25;79279.53;5056997;28;20025;-33
2022/11/21 05:18:19;;;;;;;68.93;18.35;;;;;;;-143.48;93.30;79273.59;5056384;28;20078;-34
2022/11/21 05:20:44;;;;;;;53.70;17.23;;;;;;;-143.48;93.12;79259.69;5055713;28;20041;-34
2022/11/21 05:23:10;;;;;;;60.42;15.65;;;;;;;-143.48;92.74;79279.53;5055538;28;20438;-33
2022/11/21 05:25:35;;;;;;;41.97;16.38;;;;;;;-143.48;92.80;79253.75;5056651;28;20500;-35
2022/11/21 05:28:00;;;;;;;45.40;15.98;;;;;;;-143.48;92.54;79287.47;5056326;28;20372;-33
2022/11/21 05:30:26;;;;;;;45.22;15.77;;;;;;;-143.48;92.96;79279.53;5056798;28;20025;-33
2022/11/21 05:32:51;;;;;;;50.13;16.65;;;;;;;-143.48;92.98;79251.75;5056222;28;20353;-34
2022/11/21 05:35:16;;;;;;;47.47;16.08;;;;;;;-143.48;92.65;79265.66;5056474;28;20440;-34
2022/11/21 05:37:42;;;;;;;40.60;16.35;;;;;;;-143.48;92.95;79257.72;5056139;28;20032;-33
2022/11/21 05:40:07;;;;;;;35.50;15.73;;;;;;;-143.48;92.65;79239.84;5056368;28;20465;-33
2022/11/21 05:45:16;;;;;;;51.05;16.67;;;;;;;-143.48;92.39;79255.72;5056078;28;20087;-33
2022/11/21 05:47:41;;;;;;;38.22;16.80;;;;;;;-143.48;92.63;79231.94;5055902;28;20033;-33
2022/11/21 05:50:07;;;;;;;40.35;15.40;;;;;;;-143.48;92.15;79202.16;5056184;28;20024;-34
2022/11/21 05:52:32;;;;;;;45.90;17.20;;;;;;;-143.48;92.30;79227.97;5055518;28;20033;-33
2022/11/21 05:54:58;;;;;;;46.95;16.67;;;;;;;-143.48;92.28;79245.81;5038301;28;20060;-34
2022/11/21 05:57:23;;;;;;;79.75;17.83;;;;;;;-143.48;92.58;79225.97;5055776;28;20047;-33
2022/11/21 05:59:48;;;;;;;58.47;17.42;;;;;;;-143.48;92.30;79225.97;5056234;28;20021;-33
2022/11/21 06:04:57;;;;;;;52.65;18.13;;;;;;;-143.48;92.81;79225.97;5056233;28;20095;-34
2022/11/21 06:07:23;;;;;;;50.30;18.02;;;;;;;-143.48;92.60;79212.09;5055598;28;20025;-33
2022/11/21 06:09:48;;;;;;;83.82;18.02;;;;;;;-143.48;93.05;79214.06;5055910;28;20100;-33
2022/11/21 06:12:13;;;;;;;82.20;19.27;;;;;;;-143.48;93.25;79241.84;5055452;28;20083;-33
2022/11/21 06:14:38;;;;;;;66.55;19.52;;;;;;;-143.48;93.66;79208.13;5055443;28;20029;-33
2022/11/21 06:17:04;;;;;;;102.78;20.50;;;;;;;-143.48;93.41;79210.09;5054697;28;20393;-32
2022/11/21 06:19:29;;;;;;;90.47;19.27;;;;;;;-143.48;93.74;79208.13;5055284;28;20170;-34
2022/11/21 06:21:54;;;;;;;136.30;20.30;;;;;;;-143.48;93.83;79208.13;5056113;28;20055;-33
2022/11/21 06:24:19;;;;;;;88.10;20.15;;;;;;;-143.48;93.73;79216.06;5055221;28;20021;-33
2022/11/21 06:26:45;;;;;;;85.57;21.33;;;;;;;-143.48;93.91;79214.06;5055241;28;20032;-33
2022/11/21 06:29:10;;;;;;;83.47;20.73;;;;;;;-143.48;94.07;79188.28;5055735;28;20037;-33
2022/11/21 06:31:36;;;;;;;112.05;19.98;;;;;;;-143.48;93.95;79186.31;5054382;28;20029;-34
2022/11/21 06:34:02;;;;;;;135.32;22.15;;;;;;;-143.48;93.69;79180.34;5055392;28;20081;-33
2022/11/21 06:36:27;;;;;;;135.90;22.00;;;;;;;-143.48;93.33;79190.28;5054996;28;20460;-33
2022/11/21 06:38:54;;;;;;;73.07;19.65;;;;;;;-143.48;93.02;79164.47;5055237;28;20474;-33
2022/11/21 06:41:22;;;;;;;116.68;20.80;;;;;;;-143.48;92.71;79176.38;5055327;28;20051;-34
2022/11/21 06:43:47;;;;;;;104.25;22.90;;;;;;;-143.48;93.01;79170.44;5055296;28;20024;-33
2022/11/21 06:46:14;;;;;;;65.70;19.45;;;;;;;-143.48;93.15;79168.44;5055091;28;20025;-34
2022/11/21 06:48:40;;;;;;;78.22;20.13;;;;;;;-143.48;93.36;79152.59;5055309;28;20031;-35
2022/11/21 06:51:25;;;;;;;46.38;19.33;;;;;;;-143.48;93.14;79124.81;5054862;28;20442;-34
2022/11/21 06:53:56;;;;;;;73.43;20.70;;;;;;;-143.48;92.47;79134.72;5054147;28;20040;-34
2022/11/21 06:56:24;;;;;;;53.63;19.45;;;;;;;-143.48;92.81;79144.66;5036859;28;20092;-34
2022/11/21 06:58:50;;;;;;;80.57;19.52;;;;;;;-143.48;92.61;79136.72;5054792;28;20384;-33
2022/11/21 07:01:15;;;;;;;88.32;21.60;;;;;;;-143.48;92.71;79158.53;5054892;28;20021;-33
2022/11/21 07:03:41;;;;;;;72.45;21.88;;;;;;;-143.48;93.62;79138.69;5054591;28;20079;-33
2022/11/21 07:06:06;;;;;;;81.68;21.30;;;;;;;-143.48;93.02;79134.72;5036751;28;20032;-33
2022/11/21 07:08:36;;;;;;;55.50;18.60;;;;;;;-143.48;93.38;79162.50;5054658;28;20151;-34
2022/11/21 07:11:05;;;;;;;47.42;19.25;;;;;;;-143.48;94.15;79144.66;5054604;28;20025;-34
2022/11/21 07:13:31;;;;;;;47.25;19.92;;;;;;;-143.48;94.02;79138.69;5054573;28;20024;-34
2022/11/21 07:16:02;;;;;;;46.22;19.52;;;;;;;-143.48;93.94;79144.66;5054209;28;20032;-34
2022/11/21 07:18:27;;;;;;;44.45;19.17;;;;;;;-143.48;93.84;79130.75;5054230;28;20031;-33
2022/11/21 07:20:57;;;;;;;47.10;18.17;;;;;;;-143.48;93.35;79114.88;5054395;28;20467;-33
2022/11/21 07:23:22;;;;;;;40.70;18.30;;;;;;;-143.48;92.50;79089.09;5054359;28;20028;-33
2022/11/21 07:25:47;;;;;;;43.92;18.20;;;;;;;-143.48;92.27;79103.00;5053573;28;20028;-33
2022/11/21 07:28:13;;;;;;;40.47;17.98;;;;;;;-143.48;92.32;79081.16;5052894;28;20028;-34
2022/11/21 07:30:38;;;;;;;39.80;17.98;;;;;;;-143.48;91.98;79120.84;5053490;28;20361;-33
2022/11/21 07:33:05;;;;;;;39.92;17.80;;;;;;;-143.48;92.82;79095.06;5053911;28;20028;-33
2022/11/21 07:35:32;;;;;;;40.95;17.75;;;;;;;-143.48;92.65;79089.09;5053570;28;20103;-34
2022/11/21 07:37:57;;;;;;;36.97;17.48;;;;;;;-143.48;91.72;79091.09;5053428;28;20021;-34
2022/11/21 07:40:23;;;;;;;39.22;17.85;;;;;;;-143.48;91.94;79079.19;5052552;28;20034;-34
2022/11/21 07:42:48;;;;;;;38.45;17.80;;;;;;;-143.48;92.29;79091.09;5053711;28;20045;-34
2022/11/21 07:45:14;;;;;;;39.13;16.50;;;;;;;-143.48;91.82;79053.41;5053750;28;20025;-35
2022/11/21 07:47:40;;;;;;;37.63;17.23;;;;;;;-143.48;91.31;79053.41;5054198;28;20082;-34
2022/11/21 07:50:07;;;;;;;35.65;17.35;;;;;;;-143.48;90.52;79057.38;5053552;28;20457;-34
2022/11/21 07:52:33;;;;;;;36.10;16.77;;;;;;;-143.48;91.16;79039.53;5053698;28;20068;-34
2022/11/21 07:55:01;;;;;;;36.55;17.05;;;;;;;-143.48;91.22;79043.47;5053754;28;20049;-34
2022/11/21 07:57:27;;;;;;;33.92;15.88;;;;;;;-143.48;91.04;79027.63;5053623;28;20108;-34
2022/11/21 07:59:52;;;;;;;40.58;17.40;;;;;;;-143.48;91.33;79051.41;5053792;28;20104;-33
2022/11/21 08:02:19;;;;;;;33.88;15.73;;;;;;;-143.48;91.65;79047.44;5053559;28;20032;-34
2022/11/21 08:04:45;;;;;;;37.65;17.60;;;;;;;-143.48;91.72;79057.38;5053459;28;20032;-33
2022/11/21 08:07:11;;;;;;;39.35;17.50;;;;;;;-143.48;92.29;79051.41;5053159;28;20080;-33
2022/11/21 08:09:36;;;;;;;37.80;16.63;;;;;;;-143.48;91.91;79041.50;5053360;28;20479;-34
2022/11/21 08:12:01;;;;;;;40.97;17.60;;;;;;;-143.48;91.67;79027.63;5053268;28;20155;-34
2022/11/21 08:14:26;;;;;;;37.13;16.83;;;;;;;-143.48;91.18;79015.72;5053160;28;20467;-36
2022/11/21 08:16:52;;;;;;;37.20;16.65;;;;;;;-143.48;91.42;79025.63;5053325;28;20025;-34
2022/11/21 08:19:17;;;;;;;35.80;16.02;;;;;;;-143.48;91.85;78993.91;5052905;28;20048;-34
2022/11/21 08:21:44;;;;;;;39.88;17.23;;;;;;;-143.48;91.90;78991.91;5053470;28;20025;-34
2022/11/21 08:24:13;;;;;;;39.22;17.35;;;;;;;-143.48;91.25;78995.88;5035091;28;20029;-34
2022/11/21 08:26:39;;;;;;;39.00;17.65;;;;;;;-143.48;91.68;78999.84;5052461;28;20112;-35
2022/11/21 08:29:05;;;;;;;36.75;16.75;;;;;;;-143.48;91.94;78995.88;5051915;28;20017;-35
2022/11/21 08:31:30;;;;;;;40.90;18.35;;;;;;;-143.48;92.00;78995.88;5035114;28;20029;-34
2022/11/21 08:33:56;;;;;;;37.13;16.45;;;;;;;-143.48;92.64;79003.81;5051718;28;20025;-31
2022/11/21 08:36:21;;;;;;;39.33;16.95;;;;;;;-143.48;92.44;78995.88;5051693;28;20025;-33
2022/11/21 08:38:46;;;;;;;41.63;17.73;;;;;;;-143.48;92.81;78999.84;5053382;28;20025;-32
2022/11/21 08:43:56;;;;;;;36.55;16.08;;;;;;;-143.48;92.62;78954.22;5056042;28;20470;-32
2022/11/21 08:46:26;;;;;;;33.67;15.30;;;;;;;-143.48;92.95;78958.19;5039289;28;20032;-33
2022/11/21 08:48:51;;;;;;;38.83;16.55;;;;;;;-143.48;92.91;78944.31;5057705;28;20032;-32
2022/11/21 08:51:17;;;;;;;35.85;15.82;;;;;;;-143.48;93.25;78904.63;5056766;28;20020;-33
2022/11/21 08:53:42;;;;;;;34.28;15.63;;;;;;;-143.48;92.58;78896.69;5057172;28;20043;-32
2022/11/21 08:56:08;;;;;;;37.88;15.35;;;;;;;-143.48;92.08;78904.63;5055322;28;20017;-32
2022/11/21 08:58:33;;;;;;;42.15;15.45;;;;;;;-143.48;92.23;78898.69;5054909;28;20105;-32
2022/11/21 09:00:59;;;;;;;35.40;15.05;;;;;;;-143.48;92.59;78908.59;5054720;28;20025;-32
2022/11/21 09:03:24;;;;;;;32.63;15.95;;;;;;;-143.48;92.68;78888.78;5054765;28;20025;-33
2022/11/21 09:05:50;;;;;;;31.55;14.85;;;;;;;-143.48;92.63;78900.66;5054698;28;20112;-32
2022/11/21 09:08:15;;;;;;;36.72;15.77;;;;;;;-143.48;92.47;78862.97;5036957;28;20479;-32
2022/11/21 09:10:40;;;;;;;34.25;15.55;;;;;;;-143.48;91.81;78857.03;5054718;28;20032;-32
2022/11/21 09:13:05;;;;;;;32.13;15.27;;;;;;;-143.48;91.70;78835.22;5054939;28;20021;-33
2022/11/21 09:18:14;;;;;;;35.97;15.73;;;;;;;-143.48;92.09;78845.13;5057029;28;20040;-33
2022/11/21 09:20:41;;;;;;;34.70;15.50;;;;;;;-143.48;92.21;78819.34;5056343;28;20040;-33
2022/11/21 09:23:09;;;;;;;35.60;15.95;;;;;;;-143.48;91.67;78801.50;5056788;28;20111;-33
2022/11/21 09:25:34;;;;;;;34.38;15.70;;;;;;;-143.48;91.62;78779.69;5056681;28;20029;-33
2022/11/21 09:28:05;;;;;;;33.67;15.50;;;;;;;-143.48;90.84;78783.66;5056208;28;20021;-32
2022/11/21 09:30:30;;;;;;;36.80;15.43;;;;;;;-143.48;91.89;78789.59;5039088;28;20464;-33
2022/11/21 09:33:00;;;;;;;35.30;15.93;;;;;;;-143.48;92.00;78747.94;5056520;28;20070;-33
2022/11/21 09:35:29;;;;;;;32.67;15.50;;;;;;;-143.48;90.87;78747.94;5056541;28;20029;-33
2022/11/21 09:37:55;;;;;;;32.67;15.65;;;;;;;-143.48;91.95;78742.00;5039130;28;20103;-33
2022/11/21 09:40:21;;;;;;;27.42;14.60;;;;;;;-143.48;91.77;78732.09;5056218;28;20183;-33
2022/11/21 09:43:04;;;;;;;32.67;15.30;;;;;;;-143.48;91.93;78720.19;5056024;28;20028;-33
2022/11/21 09:45:43;;;;;;;30.25;15.00;;;;;;;-143.48;92.69;78732.09;5056613;28;20033;-34
2022/11/21 09:48:18;;;;;;;34.95;14.05;;;;;;;-143.48;92.94;78692.41;5056378;28;20021;-33
2022/11/21 09:50:47;;;;;;;68.90;14.20;;;;;;;-143.48;92.41;78728.13;5055897;28;20032;-33
2022/11/21 09:53:16;;;;;;;42.28;14.57;;;;;;;-143.48;93.04;78726.13;5055926;28;20092;-33
2022/11/21 09:55:54;;;;;;;41.03;14.93;;;;;;;-143.48;93.30;78724.16;5056108;28;20020;-33
2022/11/21 09:58:40;;;;;;;52.03;14.35;;;;;;;-143.48;93.28;78730.09;5056275;28;20036;-33
2022/11/21 10:01:15;;;;;;;50.92;15.20;;;;;;;-143.48;94.39;78759.84;5056049;28;20373;-33
2022/11/21 10:03:44;;;;;;;39.28;15.18;;;;;;;-143.48;95.06;78751.91;5055891;28;20107;-33
2022/11/21 10:06:20;;;;;;;52.30;16.10;;;;;;;-143.48;95.32;78743.97;5055812;28;20063;-33
2022/11/21 10:09:06;;;;;;;71.22;15.80;;;;;;;-143.48;94.81;78710.25;5037719;28;20020;-33
2022/11/21 10:12:35;;;;;;;35.00;15.77;;;;;;;-143.48;94.41;78718.19;5023907;28;20048;-33
2022/11/21 10:14:51;;;;;;;38.75;15.93;;;;;;;-143.48;94.38;78702.31;5055759;28;20428;-33
2022/11/21 10:17:19;;;;;;;31.42;15.65;;;;;;;-143.48;94.98;78724.16;5055397;28;20029;-33
2022/11/21 10:20:06;;;;;;;37.45;16.55;;;;;;;-143.48;94.74;78722.16;5055168;28;20045;-32
2022/11/21 10:22:50;;;;;;;40.97;15.35;;;;;;;-143.48;95.08;78702.31;5037205;28;20067;-33
2022/11/21 10:25:28;;;;;;;34.38;15.57;;;;;;;-143.48;94.59;78704.31;5055519;28;20043;-32
2022/11/21 10:28:26;;;;;;;35.40;15.40;;;;;;;-143.48;94.85;78670.59;5055751;28;20025;-33
2022/11/21 10:30:53;;;;;;;34.58;15.63;;;;;;;-143.48;93.82;78680.50;5055198;28;20523;-32
2022/11/21 10:33:31;;;;;;;31.15;15.85;;;;;;;-143.48;93.86;78670.59;5037875;28;20017;-33
2022/11/21 10:36:04;;;;;;;34.90;15.80;;;;;;;-143.48;94.30;78674.56;5055334;28;20432;-33
2022/11/21 10:38:36;;;;;;;39.22;16.20;;;;;;;-143.48;94.69;78664.66;5055108;28;20052;-33
2022/11/21 10:41:47;;;;;;;37.92;16.88;;;;;;;-143.48;94.26;78652.75;5054852;28;20025;-33
2022/11/21 10:47:29;;;;;;;39.22;16.73;;;;;;;-143.48;94.10;78636.88;5055156;28;20040;-33
2022/11/21 10:50:13;;;;;;;;;;;;;;;-143.48;94.01;78603.16;5055075;28;20025;-33
2022/11/21 10:52:45;;;;;;;34.53;16.02;;;;;;;-143.48;93.41;78611.09;5054773;28;19915;-33
2022/11/21 10:55:13;;;;;;;37.05;16.90;;;;;;;-143.48;93.48;78601.19;5055278;28;20071;-33
2022/11/21 10:57:47;;;;;;;38.38;17.15;;;;;;;-143.48;93.04;78573.41;5054458;28;20063;-33
2022/11/21 11:00:13;;;;;;;40.13;16.85;;;;;;;-143.48;92.27;78561.50;5054570;28;20131;-32
2022/11/21 11:02:40;;;;;;;40.60;17.88;;;;;;;-143.48;92.58;78593.25;5053802;28;20049;-33
2022/11/21 11:05:22;;;;;;;37.83;18.05;;;;;;;-143.48;92.26;78551.59;5054535;28;20463;-33
2022/11/21 11:08:10;;;;;;;43.88;17.73;;;;;;;-143.48;92.50;78559.53;5054408;28;20051;-33
2022/11/21 11:10:39;;;;;;;36.47;18.92;;;;;;;-143.48;92.24;78539.69;5054508;28;20079;-33
2022/11/21 11:13:33;;;;;;;35.40;18.10;;;;;;;-143.48;92.39;78565.47;5054269;28;20104;-33
2022/11/21 11:16:10;;;;;;;37.78;18.42;;;;;;;-143.48;92.15;78505.97;5054546;28;20543;-33
2022/11/21 11:19:14;;;;;;;37.67;18.08;;;;;;;-143.48;92.06;78505.97;5053978;28;20067;-32
2022/11/21 11:21:40;;;;;;;39.92;17.08;;;;;;;-143.48;91.67;78496.06;5042506;28;20450;-33
2022/11/21 11:24:26;;;;;;;36.65;17.92;;;;;;;-143.48;91.52;78490.13;5054117;28;20108;-33